Airfield :







YOU CAN JOIN US ON...

 
LOGIN :

Register | Disclaimer

   EN    FR    IT 

 









Legend :    VFR   Marginal VFR   IFR   Intensive IFR   Very Intensive IFR
Visi :
Ceiling :
>= 8 km
>= 3000ft
5 to 8 km
1000 to 3000 ft
1500m to 5 km
500 to 1000 ft
800 to 1500m
200 to 500 ft
< 800m
< 200 ft
Symbols :   Thunderstorms  Fog  Heavy snow  Heavy precipitations  Wind > 20 kt






- Airport Elevation : 160 ft
- IATA code : YYR


CYYR - Goose Bay

CURRENT METAR :
  • 200306Z 31018G25KT 2 1/2SM -SN BLSN SCT034 BKN048 OVC060 M11/M16 A2932 RMK SC3SC3SC2 PRESRR SLP932

EXPIRED METARs :
  • 200200Z 28013KT 6SM -SN BKN035 OVC050 M10/M15 A2930 RMK SC6SC2 SLP926
  • 200100Z 28015KT 8SM -SHSN DRSN BKN036 OVC050 M09/M14 A2928 RMK SC6SC2 SLP919

TAF TAF CYYR
Valid from the 20 at 00:00 until the 21 at 00:00 UTC


192330Z 2000/2024 29007KT P6SM FEW012 SCT050 BKN080
TEMPO 2000/2002 2SM -SN BKN012 OVC050
BECMG 2000/2002 29012G22KT
FM200200 29012G22KT P6SM -SN SCT030 BKN050
TEMPO 2002/2005 2SM -SN BLSN BKN030 OVC050
BECMG 2002/2004 28020G35KT
FM200500 28020G35KT P6SM FEW030 BKN050
TEMPO 2005/2012 5SM BLSN
PROB30 2005/2012 2SM BLSN VV005
FM201600 27020G35KT P6SM SCT040 RMK NXT FCST BY 200600Z



MET'MAP, your aeronautical weather chart ! - Copyright ORBIFLY December 2007 - Disclaimer

ORBIFLY MET'MAP TEAM :

Programming & Development : Alexandra Zaïnal
Concept & original design : Baudouin d'Aumeries
Assistance for programming : Marc-Olivier Méhu
Technical & hardware support : Manuel Goepfert

Contact : metmap@orbifly.com




SOURCES & CREDITS :

   NOAA